Time;durP1;ratioP1;P1;durP2;ratioP2;P2;SDS_P1;SDS_P2;PMS_P1;PMS_P2;Temp;Humidity;BMP_temperature;BMP_pressure;BME280_temperature;BME280_humidity;BME280_pressure;Samples;Min_cycle;Max_cycle;Signal;HPM_P1;HPM_P2
2022/09/25 00:00:58;;;;;;;8.43;6.40;;;16.40;98.30;;;16.83;66.47;98278.13;4980106;28;124065;-75
2022/09/25 00:03:27;;;;;;;8.23;6.47;;;16.40;98.30;;;16.81;66.20;98283.25;4985772;28;122749;-77
2022/09/25 00:06:07;;;;;;;8.90;5.63;;;16.30;98.20;;;16.78;66.42;98280.00;4976094;28;114089;-75
2022/09/25 00:08:35;;;;;;;7.00;5.73;;;16.30;98.20;;;16.75;66.68;98275.13;4983811;28;113455;-78
2022/09/25 00:11:12;;;;;;;8.03;5.87;;;16.20;98.20;;;16.73;66.40;98271.09;4980087;28;124051;-75
2022/09/25 00:13:43;;;;;;;7.20;6.10;;;16.30;98.20;;;16.70;66.52;98281.00;4981246;28;123957;-76
2022/09/25 00:16:14;;;;;;;8.73;6.40;;;16.30;98.20;;;16.68;66.40;98282.53;4979287;28;114394;-76
2022/09/25 00:21:29;;;;;;;7.53;6.13;;;16.20;98.20;;;16.64;66.42;98278.88;4983888;28;124787;-76
2022/09/25 00:23:59;;;;;;;7.60;6.00;;;16.20;98.20;;;16.62;66.66;98276.44;4981582;28;123875;-79
2022/09/25 00:26:28;;;;;;;8.40;6.40;;;16.20;98.30;;;16.61;66.57;98274.03;4980562;28;114993;-75
2022/09/25 00:28:55;;;;;;;7.57;5.83;;;16.20;98.30;;;16.60;66.53;98278.00;4984429;28;115304;-75
2022/09/25 00:31:23;;;;;;;7.60;5.60;;;16.50;98.50;;;16.58;66.79;98270.00;4979721;28;123820;-75
2022/09/25 00:33:51;;;;;;;8.77;6.27;;;16.10;98.30;;;16.57;66.68;98268.38;4978081;28;123667;-75
2022/09/25 00:36:18;;;;;;;8.40;6.50;;;16.10;98.40;;;16.57;66.56;98273.94;4979823;28;114267;-75
2022/09/25 00:38:47;;;;;;;7.47;5.47;;;16.20;98.40;;;16.57;66.71;98268.38;4966709;28;113161;-78
2022/09/25 00:41:20;;;;;;;7.00;5.40;;;16.10;98.30;;;16.57;66.61;98268.38;4976329;28;124041;-75
2022/09/25 00:43:51;;;;;;;7.53;5.53;;;16.10;98.30;;;16.54;66.43;98263.53;4962000;28;122197;-75
2022/09/25 00:46:29;;;;;;;7.10;5.63;;;16.10;98.30;;;16.53;66.60;98261.94;4978332;28;115724;-74
2022/09/25 00:49:05;;;;;;;6.73;5.17;;;16.10;98.30;;;16.50;66.31;98246.72;4981897;28;114605;-76
2022/09/25 00:51:44;;;;;;;7.60;5.00;;;16.00;98.20;;;16.49;66.42;98245.09;4961611;28;124132;-74
2022/09/25 00:54:35;;;;;;;5.37;4.17;;;16.00;98.20;;;16.45;66.28;98243.41;4983592;28;125459;-75
2022/09/25 00:57:08;;;;;;;7.20;5.60;;;16.00;98.20;;;16.46;66.20;98240.25;4980181;28;111687;-75
2022/09/25 00:59:46;;;;;;;5.17;4.33;;;16.10;98.30;;;16.47;66.38;98235.47;4974858;28;114389;-74
2022/09/25 01:02:23;;;;;;;6.00;4.30;;;16.00;98.20;;;16.47;66.36;98230.72;4971280;28;124904;-74
2022/09/25 01:04:51;;;;;;;6.60;5.13;;;16.00;98.20;;;16.47;66.44;98236.31;4972774;28;124113;-74
2022/09/25 01:07:19;;;;;;;8.10;5.20;;;16.00;98.20;;;16.47;66.25;98235.47;4981377;28;113265;-76
2022/09/25 01:09:45;;;;;;;5.90;4.70;;;16.00;98.20;;;16.45;66.56;98238.66;4970558;28;113906;-74
2022/09/25 01:12:12;;;;;;;6.97;5.30;;;16.20;98.30;;;16.43;66.25;98227.03;4969050;28;124002;-74
2022/09/25 01:14:40;;;;;;;9.00;5.40;;;16.00;98.30;;;16.43;66.47;98229.03;4975481;28;124951;-74
2022/09/25 01:17:28;;;;;;;6.37;4.93;;;16.00;98.30;;;16.41;66.60;98234.97;4976356;28;114499;-75
2022/09/25 01:20:42;;;;;;;6.00;4.87;;;16.00;98.30;;;16.38;66.67;98230.13;4970054;28;114103;-75
2022/09/25 01:23:33;;;;;;;6.57;4.50;;;15.90;98.20;;;16.40;66.33;98224.19;4968586;28;123850;-74
2022/09/25 01:26:59;;;;;;;7.40;5.70;;;15.90;98.30;;;16.37;66.40;98230.50;4972648;28;123670;-75
2022/09/25 01:30:05;;;;;;;7.40;5.40;;;15.90;98.20;;;16.32;66.37;98226.00;4973054;28;114512;-76
2022/09/25 01:33:06;;;;;;;7.50;5.43;;;15.90;98.20;;;16.31;66.52;98227.19;4967502;28;113212;-75
2022/09/25 01:36:03;;;;;;;6.10;4.37;;;15.90;98.20;;;16.30;66.39;98231.94;4972241;28;124031;-73
2022/09/25 01:38:56;;;;;;;6.63;4.70;;;16.30;98.40;;;16.30;66.67;98237.50;4973285;28;124251;-75
2022/09/25 01:41:46;;;;;;;8.30;5.40;;;15.90;98.30;;;16.33;66.76;98238.75;4974456;28;115148;-74
2022/09/25 01:44:32;;;;;;;6.43;5.37;;;15.90;98.30;;;16.33;66.81;98247.97;4984073;28;113999;-76
2022/09/25 01:47:07;;;;;;;6.70;4.53;;;15.90;98.30;;;16.32;66.90;98246.31;4976456;28;123988;-75
2022/09/25 01:49:52;;;;;;;6.87;4.60;;;15.90;98.40;;;16.31;66.66;98243.91;4988031;28;123881;-75
2022/09/25 01:52:40;;;;;;;6.70;5.13;;;15.80;98.40;;;16.29;66.87;98247.06;4984784;28;114145;-75
2022/09/25 01:55:20;;;;;;;5.70;4.70;;;15.90;98.50;;;16.28;66.87;98253.81;4979476;28;114276;-75
2022/09/25 01:57:57;;;;;;;5.67;4.87;;;15.80;98.40;;;16.27;66.84;98248.59;4985371;28;125423;-74
2022/09/25 02:00:25;;;;;;;6.23;4.73;;;15.80;98.40;;;16.25;66.82;98248.94;4981681;28;123822;-76
2022/09/25 02:03:06;;;;;;;10.87;4.60;;;15.80;98.40;;;16.23;66.76;98237.38;4987713;28;114166;-75
2022/09/25 02:05:45;;;;;;;4.93;4.00;;;15.80;98.40;;;16.23;66.64;98240.16;4973743;28;114033;-75
2022/09/25 02:08:22;;;;;;;7.30;4.80;;;15.80;98.30;;;16.21;66.59;98245.28;4987334;28;124091;-75
2022/09/25 02:10:55;;;;;;;6.13;4.13;;;15.80;98.20;;;16.20;66.39;98249.25;4974524;28;123127;-74
2022/09/25 02:13:27;;;;;;;7.43;4.77;;;15.80;98.20;;;16.20;66.38;98235.31;4980505;28;114504;-77
2022/09/25 02:16:03;;;;;;;5.20;3.97;;;15.80;98.20;;;16.21;66.39;98234.13;4982378;28;114116;-78
2022/09/25 02:21:39;;;;;;;5.70;4.50;;;15.70;98.10;;;16.21;66.14;98245.28;4989303;28;124415;-76
2022/09/25 02:24:29;;;;;;;5.83;4.37;;;15.80;98.10;;;16.20;66.05;98240.06;4980347;28;114206;-75
2022/09/25 02:26:56;;;;;;;6.20;4.53;;;15.90;98.10;;;16.20;66.33;98237.28;4978729;28;115199;-75
2022/09/25 02:29:23;;;;;;;5.13;3.87;;;16.00;98.10;;;16.21;66.18;98234.13;4987605;28;124073;-74
2022/09/25 02:31:54;;;;;;;7.40;4.43;;;15.70;98.00;;;16.20;66.15;98240.88;4974170;28;123008;-77
2022/09/25 02:34:22;;;;;;;5.73;4.50;;;15.80;98.30;;;16.21;66.14;98236.91;4991821;28;114958;-74
2022/09/25 02:36:49;;;;;;;5.40;4.30;;;16.00;98.00;;;16.22;66.12;98230.16;4988672;28;114947;-76
2022/09/25 02:39:20;;;;;;;5.57;4.53;;;15.80;97.90;;;16.22;66.09;98224.59;4969658;28;124764;-75
2022/09/25 02:42:15;;;;;;;6.77;4.70;;;15.70;97.90;;;16.23;65.95;98229.00;4983396;28;123727;-75
2022/09/25 02:45:19;;;;;;;5.60;4.00;;;16.00;98.10;;;16.23;66.06;98231.78;4979727;28;114368;-77
2022/09/25 02:48:21;;;;;;;6.80;4.30;;;15.80;98.00;;;16.21;66.07;98231.34;4993909;28;113942;-75
2022/09/25 02:51:08;;;;;;;5.00;4.03;;;15.80;98.00;;;16.24;66.19;98227.81;4937724;28;123903;-75
2022/09/25 02:53:40;;;;;;;5.10;4.60;;;15.80;98.00;;;16.27;66.10;98215.94;4987922;28;124511;-75
2022/09/25 02:56:32;;;;;;;5.60;4.40;;;15.80;98.10;;;16.28;66.10;98220.38;4987300;28;114219;-76
2022/09/25 02:59:18;;;;;;;6.67;4.77;;;15.80;98.10;;;16.30;66.08;98222.78;4971184;28;112955;-75
2022/09/25 03:01:46;;;;;;;5.20;4.27;;;15.90;98.10;;;16.32;66.30;98214.84;4984553;28;123942;-75
2022/09/25 03:04:16;;;;;;;5.50;4.47;;;15.80;98.10;;;16.34;66.27;98226.47;4987143;28;123163;-75
2022/09/25 03:06:44;;;;;;;6.80;4.70;;;15.80;98.10;;;16.38;66.35;98226.53;4979863;28;114120;-74
2022/09/25 03:09:12;;;;;;;5.80;4.83;;;15.90;98.20;;;16.38;66.60;98221.75;4979661;28;113808;-77
2022/09/25 03:11:42;;;;;;;6.87;5.50;;;15.90;98.20;;;16.40;66.29;98225.00;4981006;28;124364;-74
2022/09/25 03:14:09;;;;;;;6.93;5.43;;;15.90;98.30;;;16.40;66.46;98216.63;4979558;28;124194;-75
2022/09/25 03:16:55;;;;;;;9.23;5.90;;;15.90;98.30;;;16.41;66.24;98225.78;4983416;28;114280;-74
2022/09/25 03:19:26;;;;;;;6.57;5.63;;;15.90;98.40;;;16.39;66.59;98225.34;4991175;28;114119;-75
2022/09/25 03:21:53;;;;;;;16.23;8.30;;;15.90;98.40;;;16.38;66.70;98238.47;4984831;28;124450;-76
2022/09/25 03:24:20;;;;;;;10.70;8.70;;;15.90;98.50;;;16.38;66.92;98232.91;4983665;28;124552;-75
2022/09/25 03:26:47;;;;;;;9.33;6.80;;;15.90;98.50;;;16.37;66.99;98236.88;4980700;28;115655;-75
2022/09/25 03:29:16;;;;;;;13.40;7.97;;;16.10;98.70;;;16.37;66.89;98238.88;4979960;28;115152;-76
2022/09/25 03:31:44;;;;;;;9.17;7.10;;;15.90;98.60;;;16.37;67.08;98234.09;4983497;28;124779;-75
2022/09/25 03:34:13;;;;;;;7.63;6.13;;;16.40;98.80;;;16.37;67.15;98236.88;4978398;28;123996;-76
2022/09/25 03:36:40;;;;;;;8.23;7.07;;;15.90;98.70;;;16.39;67.15;98242.06;4986536;28;114213;-77
2022/09/25 03:39:09;;;;;;;8.30;6.73;;;15.90;98.70;;;16.40;66.96;98238.13;4980696;28;113801;-79
2022/09/25 03:41:36;;;;;;;6.60;5.70;;;15.90;98.60;;;16.40;67.01;98235.34;4977922;28;124119;-75
2022/09/25 03:44:03;;;;;;;7.10;5.80;;;15.90;98.60;;;16.41;66.79;98231.38;4987088;28;123650;-75
2022/09/25 03:46:33;;;;;;;7.23;5.63;;;15.90;98.50;;;16.40;66.52;98230.56;4985420;28;114309;-75
2022/09/25 03:49:01;;;;;;;6.70;6.00;;;15.90;98.50;;;16.42;66.72;98228.22;4988111;28;113741;-74
2022/09/25 03:51:29;;;;;;;9.57;7.07;;;15.90;98.50;;;16.42;66.73;98222.66;4971515;28;123092;-74
2022/09/25 03:53:56;;;;;;;11.23;7.10;;;15.90;98.50;;;16.44;66.96;98219.47;4954041;28;123089;-75
2022/09/25 03:56:26;;;;;;;10.47;7.53;;;16.40;98.80;;;16.44;66.55;98219.47;4988567;28;114717;-74
2022/09/25 03:58:53;;;;;;;12.20;8.60;;;16.00;98.60;;;16.45;67.02;98215.53;4978890;28;114277;-74
2022/09/25 04:01:21;;;;;;;10.27;8.67;;;15.90;98.50;;;16.45;66.73;98212.75;4972554;28;122520;-74
2022/09/25 04:03:49;;;;;;;9.63;7.13;;;15.90;98.60;;;16.45;66.86;98212.75;4984518;28;123867;-74
2022/09/25 04:06:22;;;;;;;10.60;8.13;;;15.90;98.60;;;16.45;66.86;98209.97;4979197;28;112769;-74
2022/09/25 04:08:49;;;;;;;18.77;8.97;;;15.90;98.60;;;16.43;66.90;98212.31;4986671;28;114156;-74
2022/09/25 04:11:18;;;;;;;13.27;9.23;;;15.90;98.60;;;16.40;67.03;98213.03;4982460;28;123749;-74
2022/09/25 04:13:45;;;;;;;12.33;9.20;;;15.90;98.70;;;16.37;66.99;98216.56;4989786;28;123960;-74
2022/09/25 04:16:14;;;;;;;12.43;9.03;;;15.90;98.70;;;16.32;67.30;98218.44;4985688;28;115338;-74
2022/09/25 04:18:41;;;;;;;11.47;9.20;;;15.90;98.80;;;16.28;67.47;98217.56;4983811;28;115498;-74
2022/09/25 04:21:11;;;;;;;13.60;10.10;;;15.70;98.80;;;16.25;67.35;98223.06;4986436;28;124498;-74
2022/09/25 04:23:39;;;;;;;12.93;9.77;;;15.70;98.80;;;16.22;67.38;98219.00;4990095;28;123920;-75
2022/09/25 04:26:06;;;;;;;12.30;8.43;;;15.70;98.90;;;16.22;67.45;98224.59;4984152;28;114354;-77
2022/09/25 04:28:34;;;;;;;11.20;9.50;;;15.70;98.90;;;16.20;67.39;98220.53;4979472;28;113474;-75
2022/09/25 04:31:01;;;;;;;14.50;9.73;;;15.70;98.90;;;16.18;67.32;98229.28;4987574;28;123227;-76
2022/09/25 04:33:46;;;;;;;13.13;9.37;;;15.70;98.80;;;16.17;67.28;98232.44;4988327;28;123747;-75
2022/09/25 04:36:17;;;;;;;13.63;9.00;;;15.70;98.80;;;16.13;67.35;98235.16;4986586;28;114369;-75
2022/09/25 04:38:45;;;;;;;15.00;10.80;;;15.70;98.80;;;16.11;67.27;98217.97;4989141;28;113104;-75
2022/09/25 04:41:11;;;;;;;17.13;12.37;;;15.60;98.80;;;16.06;67.41;98230.19;4983297;28;124118;-75
2022/09/25 04:43:40;;;;;;;12.37;9.50;;;15.60;99.10;;;16.04;67.49;98229.78;4985163;28;123805;-74
2022/09/25 04:46:10;;;;;;;13.60;10.07;;;15.60;98.80;;;16.02;67.61;98229.31;4986610;28;113053;-75
2022/09/25 04:48:36;;;;;;;14.80;9.87;;;15.60;98.90;;;16.03;67.55;98232.91;4982249;28;113121;-74
2022/09/25 04:51:04;;;;;;;16.97;10.37;;;15.50;98.80;;;16.02;67.43;98234.09;4983188;28;123973;-75
2022/09/25 04:53:35;;;;;;;10.50;8.53;;;15.50;98.90;;;16.04;67.51;98234.53;4984644;28;123780;-76
2022/09/25 04:56:06;;;;;;;13.77;9.57;;;16.00;99.40;;;16.05;67.51;98230.56;4977435;28;113690;-75
2022/09/25 04:58:34;;;;;;;11.10;8.70;;;15.60;98.90;;;16.08;67.52;98224.28;4980250;28;113739;-74
2022/09/25 05:01:07;;;;;;;12.83;9.27;;;15.60;98.90;;;16.10;67.47;98221.94;4983163;28;123851;-78
2022/09/25 05:03:37;;;;;;;14.00;9.50;;;15.60;98.90;;;16.11;67.43;98227.13;4980281;28;124294;-75
2022/09/25 05:06:03;;;;;;;14.00;8.83;;;15.60;98.90;;;16.12;67.43;98219.59;4981332;28;115686;-76
2022/09/25 05:08:30;;;;;;;13.30;9.17;;;15.60;98.90;;;16.12;67.57;98219.59;4981654;28;115315;-75
2022/09/25 05:10:56;;;;;;;12.67;9.17;;;15.60;98.80;;;16.13;67.37;98237.94;4975863;28;123877;-76
2022/09/25 05:13:23;;;;;;;12.23;8.90;;;15.60;98.90;;;16.14;67.26;98231.19;4963487;28;123361;-75
2022/09/25 05:15:49;;;;;;;13.30;8.47;;;15.60;98.90;;;16.14;67.47;98231.19;4975157;28;114311;-74
2022/09/25 05:18:22;;;;;;;12.43;8.90;;;15.60;98.80;;;16.15;67.05;98235.59;4973780;28;113208;-75
2022/09/25 05:20:49;;;;;;;13.97;8.67;;;15.70;98.80;;;16.14;67.50;98233.97;4974856;28;124143;-75
2022/09/25 05:23:17;;;;;;;13.83;8.87;;;15.70;98.80;;;16.15;67.31;98241.16;4969946;28;124329;-76
2022/09/25 05:25:43;;;;;;;18.30;13.17;;;15.60;98.80;;;16.15;67.32;98240.34;4973021;28;114375;-74
2022/09/25 05:28:10;;;;;;;14.73;11.03;;;15.70;98.80;;;16.16;67.11;98233.59;4968457;28;113126;-76
2022/09/25 05:30:37;;;;;;;14.20;10.13;;;15.90;98.90;;;16.15;67.12;98235.59;4968874;28;125169;-74
2022/09/25 05:33:04;;;;;;;12.10;9.70;;;15.60;98.80;;;16.16;67.38;98234.41;4978189;28;123851;-76
2022/09/25 05:35:32;;;;;;;13.97;9.67;;;15.90;98.80;;;16.15;67.31;98238.38;4972452;28;114404;-75
2022/09/25 05:37:58;;;;;;;10.33;8.20;;;15.70;98.80;;;16.16;67.36;98228.03;4965749;28;113964;-78
2022/09/25 05:40:25;;;;;;;11.57;9.40;;;15.70;98.70;;;16.17;67.08;98232.44;4986508;28;123326;-76
2022/09/25 05:42:53;;;;;;;15.97;10.07;;;15.70;98.70;;;16.18;67.10;98240.44;4970932;28;123819;-74
2022/09/25 05:45:24;;;;;;;13.90;9.87;;;15.70;98.70;;;16.18;67.25;98229.28;4978309;28;114810;-76
2022/09/25 05:48:06;;;;;;;14.33;9.10;;;15.70;98.70;;;16.19;67.10;98230.09;4968375;28;113883;-74
2022/09/25 05:50:33;;;;;;;11.43;8.70;;;15.70;98.70;;;16.19;66.95;98242.03;4971867;28;124173;-75
2022/09/25 05:53:02;;;;;;;11.87;7.40;;;15.70;98.70;;;16.19;67.27;98242.03;4985105;28;124393;-74
2022/09/25 05:55:30;;;;;;;14.13;10.30;;;15.70;98.70;;;16.18;67.50;98237.66;4981062;28;115782;-75
2022/09/25 05:58:03;;;;;;;11.50;8.80;;;15.70;98.70;;;16.17;67.00;98226.84;4984971;28;115464;-74
2022/09/25 06:00:32;;;;;;;12.17;9.23;;;15.70;98.70;;;16.16;67.06;98236.41;4971073;28;124148;-74
2022/09/25 06:03:02;;;;;;;15.07;9.53;;;15.70;98.70;;;16.16;67.12;98240.00;4974852;28;122557;-75
2022/09/25 06:05:29;;;;;;;12.00;9.00;;;15.70;98.70;;;16.16;67.27;98242.78;4984295;28;114060;-74
2022/09/25 06:07:55;;;;;;;11.43;8.30;;;15.70;98.80;;;16.17;67.05;98241.59;4980484;28;114700;-75
2022/09/25 06:10:24;;;;;;;12.73;9.23;;;15.70;98.80;;;16.19;66.92;98239.25;4982107;28;123880;-80
2022/09/25 06:12:57;;;;;;;11.87;8.77;;;15.70;98.80;;;16.19;67.42;98247.63;4983093;28;124234;-75
2022/09/25 06:15:28;;;;;;;13.13;9.40;;;15.70;98.80;;;16.20;67.23;98232.53;4980819;28;114875;-75
2022/09/25 06:17:55;;;;;;;11.00;8.77;;;15.70;98.80;;;16.22;67.08;98238.53;4961315;28;114259;-77
2022/09/25 06:20:23;;;;;;;11.90;8.87;;;15.70;98.80;;;16.24;67.10;98238.19;4963605;28;123378;-79
2022/09/25 06:22:54;;;;;;;13.77;10.23;;;15.70;98.80;;;16.26;66.94;98242.22;4978694;28;124830;-75
2022/09/25 06:25:24;;;;;;;11.17;8.83;;;15.90;98.90;;;16.27;67.25;98238.25;4986298;28;114444;-75
2022/09/25 06:27:59;;;;;;;9.47;7.73;;;15.70;98.70;;;16.27;67.09;98238.25;4969492;28;113143;-76
2022/09/25 06:30:33;;;;;;;10.63;8.57;;;15.80;98.80;;;16.27;67.22;98238.25;4989437;28;124266;-76
2022/09/25 06:33:01;;;;;;;12.80;8.33;;;15.80;98.80;;;16.28;67.20;98239.88;4988993;28;123040;-76
2022/09/25 06:35:28;;;;;;;12.13;9.10;;;15.80;98.80;;;16.30;67.04;98237.50;4980198;28;113993;-76
2022/09/25 06:37:59;;;;;;;10.43;8.53;;;16.90;99.30;;;16.32;66.97;98240.75;4983451;28;113762;-75
2022/09/25 06:40:28;;;;;;;13.40;9.53;;;15.80;98.70;;;16.33;67.03;98236.81;4971994;28;123900;-77
2022/09/25 06:43:00;;;;;;;12.90;9.13;;;16.00;98.80;;;16.34;66.97;98237.59;4983373;28;123424;-77
2022/09/25 06:45:31;;;;;;;9.90;7.97;;;15.80;98.70;;;16.34;66.85;98235.63;4976339;28;115095;-76
2022/09/25 06:48:03;;;;;;;8.83;7.50;;;15.80;98.70;;;16.37;66.71;98244.44;4974787;28;115034;-76
2022/09/25 06:50:38;;;;;;;10.13;7.50;;;15.90;98.80;;;16.38;66.90;98246.03;4972122;28;124592;-77
2022/09/25 06:53:04;;;;;;;9.57;7.43;;;15.90;98.70;;;16.41;66.74;98242.53;4973726;28;123564;-75
2022/09/25 06:55:34;;;;;;;8.83;6.63;;;15.90;98.70;;;16.42;66.69;98239.38;4979355;28;114749;-79
2022/09/25 06:58:01;;;;;;;8.83;6.93;;;15.90;98.60;;;16.44;66.61;98241.78;4980555;28;114055;-77
2022/09/25 07:00:27;;;;;;;10.43;6.77;;;15.90;98.60;;;16.43;66.50;98240.19;4968029;28;124527;-75
2022/09/25 07:05:43;;;;;;;9.97;7.00;;;16.00;98.60;;;16.43;66.43;98248.53;4986555;28;114775;-78
2022/09/25 07:08:12;;;;;;;9.30;6.50;;;15.90;98.40;;;16.39;66.35;98251.28;4987504;28;114418;-76
2022/09/25 07:10:39;;;;;;;9.13;7.03;;;15.90;98.40;;;16.39;66.50;98247.66;4968752;28;123435;-76
2022/09/25 07:13:06;;;;;;;9.30;6.67;;;15.90;98.40;;;16.40;66.31;98252.88;4969007;28;122789;-75
2022/09/25 07:15:32;;;;;;;10.27;7.40;;;16.00;98.40;;;16.43;66.25;98259.69;4982139;28;114195;-80
2022/09/25 07:17:58;;;;;;;8.87;6.57;;;16.20;98.40;;;16.43;65.97;98251.34;4981548;28;113989;-77
2022/09/25 07:20:25;;;;;;;10.30;7.57;;;15.90;98.30;;;16.41;66.36;98251.69;4980215;28;124000;-85
2022/09/25 07:22:52;;;;;;;9.83;6.80;;;16.10;98.30;;;16.42;66.08;98255.31;4972853;28;123796;-80
2022/09/25 07:25:18;;;;;;;9.73;7.00;;;15.90;98.20;;;16.44;65.90;98252.94;4983027;28;114102;-79
2022/09/25 07:27:45;;;;;;;11.40;7.90;;;15.90;98.20;;;16.45;65.92;98254.56;4981106;28;114271;-78
2022/09/25 07:30:12;;;;;;;9.70;7.37;;;16.00;98.10;;;16.46;65.55;98256.19;4982798;28;123507;-76
2022/09/25 07:32:38;;;;;;;9.03;6.73;;;16.00;98.10;;;16.48;65.67;98251.06;4979635;28;123109;-77
2022/09/25 07:35:05;;;;;;;10.37;7.67;;;15.90;98.00;;;16.49;65.81;98247.88;4983648;28;115224;-80
2022/09/25 07:37:32;;;;;;;10.00;7.40;;;16.00;98.00;;;16.52;65.58;98257.50;4985901;28;114540;-75
2022/09/25 07:39:58;;;;;;;9.60;6.87;;;16.00;98.00;;;16.53;65.50;98250.78;4973679;28;125353;-74
2022/09/25 07:42:25;;;;;;;8.77;6.10;;;16.00;98.00;;;16.52;65.79;98249.97;4977815;28;123604;-77
2022/09/25 07:44:51;;;;;;;13.10;7.83;;;16.10;98.00;;;16.53;65.57;98257.16;4978918;28;114998;-74
2022/09/25 07:47:18;;;;;;;8.33;6.40;;;16.20;98.00;;;16.53;65.68;98242.41;4978888;28;114644;-75
2022/09/25 07:49:45;;;;;;;9.47;7.03;;;16.00;98.00;;;16.52;65.86;98249.97;4984373;28;123334;-75
2022/09/25 07:52:13;;;;;;;8.67;6.47;;;16.00;98.00;;;16.53;65.55;98250.78;4978096;28;123888;-79
2022/09/25 07:54:39;;;;;;;10.07;6.70;;;16.00;98.00;;;16.53;65.61;98256.34;4980747;28;114368;-76
2022/09/25 07:57:06;;;;;;;7.80;5.60;;;16.00;98.00;;;16.53;65.43;98251.56;4987874;28;113885;-76
2022/09/25 07:59:32;;;;;;;9.17;6.90;;;16.00;98.00;;;16.56;65.69;98252.81;4982843;28;124119;-76
2022/09/25 08:02:01;;;;;;;9.37;5.83;;;16.00;98.00;;;16.57;65.53;98255.22;4982248;28;124138;-78
2022/09/25 08:04:28;;;;;;;9.33;6.73;;;16.00;98.00;;;16.59;65.79;98252.09;4980971;28;114274;-75
2022/09/25 08:06:54;;;;;;;11.40;7.30;;;16.00;98.00;;;16.59;65.57;98256.84;4981806;28;114183;-77
2022/09/25 08:09:21;;;;;;;7.60;5.93;;;16.00;98.10;;;16.59;65.63;98260.44;4965836;28;124800;-79
2022/09/25 08:11:47;;;;;;;8.40;5.63;;;16.00;98.00;;;16.62;65.43;98265.28;4983411;28;123846;-79
2022/09/25 08:14:14;;;;;;;7.30;5.53;;;16.10;98.10;;;16.65;65.67;98260.97;4983594;28;113065;-75
2022/09/25 08:16:42;;;;;;;7.20;5.47;;;16.10;98.00;;;16.69;65.58;98262.66;4983051;28;113669;-76
2022/09/25 08:19:10;;;;;;;6.70;4.90;;;16.30;98.10;;;16.73;65.45;98265.53;4984505;28;124521;-76
2022/09/25 08:21:37;;;;;;;11.30;5.90;;;16.20;97.90;;;16.72;65.15;98264.72;4983576;28;123449;-81
2022/09/25 08:24:04;;;;;;;7.27;6.07;;;16.20;97.80;;;16.74;65.06;98267.97;4971590;28;115158;-77
2022/09/25 08:26:31;;;;;;;7.47;5.60;;;16.20;97.80;;;16.72;65.09;98270.28;4965378;28;114333;-76
2022/09/25 08:28:58;;;;;;;6.93;5.83;;;16.60;97.90;;;16.75;65.23;98258.41;4978892;28;125180;-77
2022/09/25 08:31:25;;;;;;;6.50;5.13;;;16.40;97.80;;;16.77;65.09;98263.66;4981924;28;123875;-76
2022/09/25 08:33:53;;;;;;;7.50;5.43;;;16.30;97.80;;;16.80;65.08;98253.75;4985215;28;114030;-78
2022/09/25 08:36:20;;;;;;;6.53;5.00;;;16.40;97.80;;;16.84;65.10;98260.19;4982195;28;115023;-79
2022/09/25 08:38:47;;;;;;;6.90;5.47;;;16.30;97.80;;;16.86;64.88;98255.06;4981671;28;122288;-78
2022/09/25 08:41:28;;;;;;;6.70;5.23;;;16.30;97.70;;;16.90;64.70;98253.97;4983969;28;124525;-75
2022/09/25 08:44:29;;;;;;;10.40;7.80;;;16.40;97.70;;;16.94;64.50;98251.25;4982138;28;114013;-78
2022/09/25 08:50:03;;;;;;;7.60;5.37;;;16.50;97.60;;;17.02;64.41;98252.19;4985010;28;124451;-78
2022/09/25 08:52:31;;;;;;;6.03;4.70;;;16.50;97.60;;;17.05;64.18;98248.66;4977641;28;124400;-79
2022/09/25 08:54:57;;;;;;;10.80;6.10;;;16.50;97.50;;;17.10;64.19;98240.78;4970635;28;114220;-76
2022/09/25 08:57:42;;;;;;;6.57;5.27;;;16.60;97.50;;;17.13;64.21;98239.25;4982375;28;114030;-76
2022/09/25 09:00:21;;;;;;;7.93;5.87;;;16.60;97.50;;;17.16;64.35;98244.88;4975730;28;124406;-80
2022/09/25 09:02:54;;;;;;;8.97;5.40;;;16.60;97.50;;;17.18;64.46;98242.53;4967382;28;123620;-74
2022/09/25 09:05:25;;;;;;;11.33;6.17;;;16.60;97.50;;;17.20;64.26;98240.19;4975740;28;114177;-76
2022/09/25 09:08:19;;;;;;;6.17;5.07;;;16.70;97.80;;;17.26;64.42;98242.69;4988581;28;114321;-78
2022/09/25 09:10:54;;;;;;;6.57;4.90;;;16.70;97.50;;;17.31;64.14;98240.38;4982381;28;123999;-81
2022/09/25 09:13:50;;;;;;;6.67;5.00;;;16.80;97.50;;;17.34;63.95;98244.41;4982993;28;125014;-76
2022/09/25 09:16:25;;;;;;;6.83;4.70;;;16.80;97.30;;;17.37;63.69;98249.25;4972857;28;115338;-76
2022/09/25 09:18:54;;;;;;;5.23;4.10;;;16.80;97.20;;;17.40;63.45;98248.50;4968813;28;114808;-79
2022/09/25 09:21:48;;;;;;;5.70;4.40;;;16.90;97.10;;;17.45;62.95;98251.00;4974702;28;123172;-77
2022/09/25 09:24:40;;;;;;;5.90;4.47;;;16.90;96.90;;;17.47;62.55;98247.84;4970836;28;123828;-76
2022/09/25 09:27:32;;;;;;;4.37;3.67;;;16.90;96.60;;;17.52;62.25;98239.97;4968270;28;114168;-77
2022/09/25 09:30:15;;;;;;;5.50;4.00;;;16.90;96.40;;;17.55;61.66;98236.41;4982592;28;114061;-80
2022/09/25 09:33:26;;;;;;;6.17;3.97;;;18.90;96.90;;;17.53;61.15;98238.78;4969911;28;124488;-79
2022/09/25 09:36:12;;;;;;;4.17;3.60;;;17.00;95.80;;;17.56;60.92;98226.84;4972293;28;124021;-78
2022/09/25 09:39:12;;;;;;;4.90;3.93;;;17.10;95.70;;;17.58;60.90;98224.50;4972698;28;113965;-81
2022/09/25 09:41:49;;;;;;;5.40;4.00;;;17.00;95.50;;;17.63;60.76;98234.56;4949545;28;113315;-81
2022/09/25 09:44:50;;;;;;;5.67;4.60;;;17.10;95.40;;;17.64;60.60;98231.38;4975591;28;124587;-76
2022/09/25 09:47:40;;;;;;;5.63;4.30;;;17.20;95.30;;;17.64;60.36;98234.16;4965572;28;123313;-75
2022/09/25 09:50:35;;;;;;;6.17;3.90;;;17.10;95.10;;;17.63;60.15;98229.78;4979290;28;115094;-76
2022/09/25 09:53:09;;;;;;;5.57;4.00;;;17.20;95.00;;;17.64;59.97;98225.78;4972154;28;114577;-83
2022/09/25 09:55:48;;;;;;;7.00;4.80;;;17.30;95.00;;;17.64;59.78;98228.59;4972054;28;123703;-75
2022/09/25 09:58:53;;;;;;;5.33;4.30;;;17.20;94.80;;;17.60;59.87;98233.31;4975719;28;123917;-76
2022/09/25 10:01:23;;;;;;;5.00;4.20;;;17.20;94.70;;;17.61;60.00;98231.31;4972368;28;114338;-76
2022/09/25 10:04:08;;;;;;;7.47;4.00;;;17.20;94.80;;;17.61;60.07;98239.72;4985299;28;113984;-77
2022/09/25 10:06:45;;;;;;;8.17;4.53;;;17.10;94.70;;;17.59;60.18;98240.06;4979437;28;124083;-77
2022/09/25 10:09:15;;;;;;;5.90;4.73;;;17.20;94.90;;;17.57;60.28;98234.06;4983814;28;123595;-76
2022/09/25 10:11:47;;;;;;;7.10;4.70;;;17.80;95.10;;;17.58;59.48;98229.28;4986749;28;115554;-77
2022/09/25 10:14:20;;;;;;;5.30;4.40;;;17.10;94.80;;;17.56;60.24;98232.44;4969041;28;114839;-77
2022/09/25 10:16:51;;;;;;;7.23;4.70;;;17.10;94.80;;;17.55;60.36;98230.84;4973904;28;123197;-79
2022/09/25 10:19:23;;;;;;;5.07;4.57;;;17.10;94.80;;;17.54;60.43;98232.00;4986470;28;123374;-77
2022/09/25 10:22:17;;;;;;;6.40;5.07;;;17.30;94.90;;;17.53;60.32;98222.00;4972814;28;114467;-76
2022/09/25 10:24:52;;;;;;;9.00;5.80;;;17.10;94.90;;;17.54;60.45;98220.81;4959985;28;113065;-75
2022/09/25 10:27:28;;;;;;;8.93;4.97;;;17.10;94.90;;;17.58;60.15;98210.53;4975100;28;124432;-75
2022/09/25 10:30:10;;;;;;;6.47;5.47;;;17.10;94.80;;;17.60;60.06;98219.34;4978504;28;123730;-75
2022/09/25 10:33:12;;;;;;;7.03;5.80;;;17.20;94.80;;;17.64;59.93;98222.19;4971345;28;114193;-76
2022/09/25 10:35:38;;;;;;;6.07;4.93;;;17.10;94.70;;;17.67;59.76;98230.63;4986767;28;114056;-76
2022/09/25 10:38:16;;;;;;;7.60;5.30;;;17.20;94.70;;;17.66;59.50;98229.03;4972027;28;124363;-72
2022/09/25 10:40:48;;;;;;;5.97;4.63;;;17.10;94.50;;;17.66;59.78;98229.03;4982741;28;123795;-76
2022/09/25 10:43:19;;;;;;;7.97;5.50;;;17.10;94.50;;;17.64;59.67;98228.59;4983237;28;114202;-75
2022/09/25 10:45:54;;;;;;;7.60;4.83;;;17.20;94.50;;;17.62;59.73;98228.16;4984596;28;114041;-75
2022/09/25 10:51:22;;;;;;;9.40;5.70;;;17.10;94.40;;;17.58;59.75;98230.09;4973671;28;124406;-75